Galesburg, Iowa
Current Conditions -  °F | °C
As of 7:35 AM on Thursday 23 Oct 2014 (Local Time) from KTNU Reporting Station
Broken Clouds Broken Clouds  
Wind Chill: 50°   Ceiling: 11000
Heat Index: 50°   Visibility: 10mi
Dew Point: 46°   Wind: 7mph
Humidity: 87%   Direction: 170°S
Pressure: 30.05"   Gusts: NA
Location:  41.587°N, 93.0159°W
Report Text: KTNU 231235Z AUTO 17006KT 10SM FEW044 BKN110 10/08 A3005 RMK AO2
Loading
Personal Weather Stations






























Interactive Weather Map New forecast layout! Learn more

10-Day Weather Forecast

Advertisements
Track Severe Weather on mobile